createdAt,value
2023-01-29T00:00:57.069Z,1260.2
2023-01-29T00:02:40.840Z,1259.3
2023-01-29T00:04:24.611Z,1259.8
2023-01-29T00:06:08.290Z,1256.3
2023-01-29T00:07:51.905Z,1254
2023-01-29T00:09:35.667Z,1248.4
2023-01-29T00:11:19.427Z,1248.7
2023-01-29T00:13:02.996Z,1250
2023-01-29T00:14:46.752Z,1251.5
2023-01-29T00:16:30.403Z,1252
2023-01-29T00:18:14.150Z,1251.9
2023-01-29T00:19:57.797Z,1255.4
2023-01-29T00:21:41.517Z,1249.5
2023-01-29T00:23:25.194Z,1249.4
2023-01-29T00:25:08.900Z,1247.2
2023-01-29T00:26:52.612Z,1252.3
2023-01-29T00:28:36.401Z,1251.6
2023-01-29T00:30:20.011Z,1252.2
2023-01-29T00:32:03.726Z,1251.6
2023-01-29T00:33:47.457Z,1253.7
2023-01-29T00:35:31.137Z,1253.3
2023-01-29T00:37:14.817Z,1249.1
2023-01-29T00:38:58.530Z,1254.1
2023-01-29T00:40:42.231Z,1256.4
2023-01-29T00:42:25.937Z,1256.7
2023-01-29T00:44:09.752Z,1256.1
2023-01-29T00:45:53.474Z,1252.1
2023-01-29T00:47:37.095Z,1248
2023-01-29T00:49:20.869Z,1251
2023-01-29T00:51:04.447Z,1252.2
2023-01-29T00:52:48.151Z,1256.3
2023-01-29T00:54:31.919Z,1256.3
2023-01-29T00:56:15.546Z,1252.1
2023-01-29T00:57:59.254Z,1249.8
2023-01-29T00:59:42.958Z,1253.1
2023-01-29T01:01:26.653Z,1256.3
2023-01-29T01:03:10.495Z,1256.7
2023-01-29T01:04:54.112Z,1254.8
2023-01-29T01:06:37.765Z,1257.6
2023-01-29T01:08:21.469Z,1256.1
2023-01-29T01:10:05.195Z,1261.7
2023-01-29T01:11:48.873Z,1259.7
2023-01-29T01:13:32.582Z,1254.1
2023-01-29T01:15:16.285Z,1251.7
2023-01-29T01:16:59.977Z,1245.3
2023-01-29T01:18:43.688Z,1247.4
2023-01-29T01:20:27.401Z,1251.1
2023-01-29T01:22:11.121Z,1252.6
2023-01-29T01:23:54.965Z,1252.5
2023-01-29T01:25:38.547Z,1249.3
2023-01-29T01:27:22.218Z,1250
2023-01-29T01:29:05.914Z,1247.9
2023-01-29T01:30:49.612Z,1242.9
2023-01-29T01:32:33.338Z,1240.7
2023-01-29T01:34:17.023Z,1241.8
2023-01-29T01:36:00.719Z,1243.8
2023-01-29T01:37:44.438Z,1245.6
2023-01-29T01:39:28.135Z,1245.1
2023-01-29T01:41:11.851Z,1246.4
2023-01-29T01:42:55.527Z,1244.2
2023-01-29T01:44:39.241Z,1242.8
2023-01-29T01:46:22.942Z,1241.5
2023-01-29T01:48:06.641Z,1241.1
2023-01-29T01:49:50.342Z,1241.3
2023-01-29T01:51:34.057Z,1240
2023-01-29T01:53:17.748Z,1240
2023-01-29T01:55:01.446Z,1234.7
2023-01-29T01:56:45.154Z,1236.4
2023-01-29T01:58:28.857Z,1238.7
2023-01-29T02:00:12.564Z,1240.8
2023-01-29T02:01:56.257Z,1243
2023-01-29T02:03:39.960Z,1247.3
2023-01-29T02:05:23.672Z,1247.8
2023-01-29T02:07:07.357Z,1244.6
2023-01-29T02:08:51.064Z,1242.7
2023-01-29T02:10:34.774Z,1243
2023-01-29T02:12:18.511Z,1244.1
2023-01-29T02:14:02.185Z,1244.4
2023-01-29T02:15:45.874Z,1240.6
2023-01-29T02:17:29.593Z,1233.6
2023-01-29T02:19:13.284Z,1236
2023-01-29T02:20:56.988Z,1238.9
2023-01-29T02:22:40.689Z,1239.3
2023-01-29T02:24:24.394Z,1242
2023-01-29T02:26:08.157Z,1241.8
2023-01-29T02:27:51.805Z,1242.3
2023-01-29T02:29:35.589Z,1242.4
2023-01-29T02:31:19.204Z,1240.4
2023-01-29T02:33:02.907Z,1241.5
2023-01-29T02:34:46.606Z,1242.6
2023-01-29T02:36:30.391Z,1245.9
2023-01-29T02:38:14.023Z,1247.4
2023-01-29T02:39:57.714Z,1240
2023-01-29T02:41:41.424Z,1236.7
2023-01-29T02:43:25.119Z,1236.6
2023-01-29T02:45:08.826Z,1236.4
2023-01-29T02:46:52.533Z,1235.4
2023-01-29T02:48:36.229Z,1236.7
2023-01-29T02:50:19.950Z,1239.8
2023-01-29T02:52:03.655Z,1243.6
2023-01-29T02:53:47.364Z,1243.5
2023-01-29T02:55:31.043Z,1247.9
2023-01-29T02:57:14.743Z,1248.3
2023-01-29T02:58:58.456Z,1248.3
2023-01-29T03:00:42.231Z,1242.8
2023-01-29T03:02:25.851Z,1242.2
2023-01-29T03:04:09.549Z,1240.7
2023-01-29T03:05:53.249Z,1238.3
2023-01-29T03:07:36.970Z,1235.3
2023-01-29T03:09:20.681Z,1236
2023-01-29T03:11:04.443Z,1237
2023-01-29T03:12:48.071Z,1234.2
2023-01-29T03:14:31.783Z,1235.2
2023-01-29T03:16:15.470Z,1239.5
2023-01-29T03:17:59.176Z,1241.9
2023-01-29T03:19:42.910Z,1239.4
2023-01-29T03:21:26.593Z,1241.9
2023-01-29T03:23:10.279Z,1242.8
2023-01-29T03:24:53.986Z,1243.1
2023-01-29T03:26:37.685Z,1242.6
2023-01-29T03:28:21.386Z,1243.8
2023-01-29T03:30:05.083Z,1244.9
2023-01-29T03:31:48.807Z,1247
2023-01-29T03:33:32.498Z,1245
2023-01-29T03:35:16.217Z,1245.5
2023-01-29T03:36:59.907Z,1246.3
2023-01-29T03:38:43.622Z,1251.1
2023-01-29T03:40:27.308Z,1251.4
2023-01-29T03:42:11.090Z,1249.7
2023-01-29T03:43:54.716Z,1247.1
2023-01-29T03:45:38.550Z,1244.1
2023-01-29T03:47:22.119Z,1242.3
2023-01-29T03:49:05.817Z,1242.7
2023-01-29T03:50:49.540Z,1245.9
2023-01-29T03:52:33.258Z,1251.1
2023-01-29T03:54:17.002Z,1250.3
2023-01-29T03:56:00.623Z,1249.1
2023-01-29T03:57:44.345Z,1246.7
2023-01-29T03:59:28.028Z,1244.7
2023-01-29T04:01:11.758Z,1246.4
2023-01-29T04:02:55.435Z,1243.1
2023-01-29T04:04:39.143Z,1240.5
2023-01-29T04:06:22.849Z,1241.7
2023-01-29T04:08:06.541Z,1239.8
2023-01-29T04:09:50.247Z,1237.8
2023-01-29T04:11:33.965Z,1240.4
2023-01-29T04:13:17.651Z,1240.9
2023-01-29T04:15:01.356Z,1239.4
2023-01-29T04:16:45.065Z,1241
2023-01-29T04:18:28.759Z,1246.7
2023-01-29T04:21:56.154Z,1246.8
2023-01-29T04:23:39.869Z,1247.2
2023-01-29T04:25:23.578Z,1246
2023-01-29T04:27:07.291Z,1248.7
2023-01-29T04:30:34.675Z,1250.6
2023-01-29T04:32:18.382Z,1254.5
2023-01-29T04:34:02.080Z,1251
2023-01-29T04:35:45.794Z,1250.6
2023-01-29T04:37:29.476Z,1253.9
2023-01-29T04:39:13.197Z,1258.1
2023-01-29T04:40:56.882Z,1256
2023-01-29T04:42:40.696Z,1250.6
2023-01-29T04:44:24.305Z,1252.5
2023-01-29T04:46:07.995Z,1246
2023-01-29T04:47:51.705Z,1243.3
2023-01-29T04:49:35.403Z,1241.2
2023-01-29T04:51:19.098Z,1242.9
2023-01-29T04:53:02.835Z,1244.9
2023-01-29T04:54:46.515Z,1245.2
2023-01-29T04:56:30.231Z,1247.4
2023-01-29T04:58:13.906Z,1249.2
2023-01-29T05:01:41.367Z,1245.3
2023-01-29T05:03:25.037Z,1249.1
2023-01-29T05:05:08.720Z,1247.5
2023-01-29T05:06:52.427Z,1245.8
2023-01-29T05:08:36.125Z,1243.8
2023-01-29T05:10:19.828Z,1244.9
2023-01-29T05:12:03.576Z,1242.4
2023-01-29T05:13:47.244Z,1243.6
2023-01-29T05:15:30.937Z,1247.2
2023-01-29T05:17:14.633Z,1249.6
2023-01-29T05:18:58.335Z,1253
2023-01-29T05:20:42.052Z,1253.7
2023-01-29T05:22:25.756Z,1252.7
2023-01-29T05:24:09.442Z,1252.9
2023-01-29T05:25:53.200Z,1250
2023-01-29T05:27:36.855Z,1254
2023-01-29T05:29:20.552Z,1253.7
2023-01-29T05:31:04.281Z,1252.9
2023-01-29T05:32:47.963Z,1254.6
2023-01-29T05:34:31.679Z,1251.5
2023-01-29T05:36:15.370Z,1252
2023-01-29T05:37:59.108Z,1249.9
2023-01-29T05:39:42.785Z,1248.8
2023-01-29T05:41:26.503Z,1247.5
2023-01-29T05:43:10.185Z,1244.2
2023-01-29T05:44:53.892Z,1251
2023-01-29T05:46:37.605Z,1251.8
2023-01-29T05:48:21.295Z,1252.3
2023-01-29T05:50:04.986Z,1251.4
2023-01-29T05:51:48.759Z,1248.1
2023-01-29T05:53:32.404Z,1247.4
2023-01-29T05:55:16.137Z,1251.5
2023-01-29T05:56:59.811Z,1254.2
2023-01-29T05:58:43.508Z,1256
2023-01-29T06:00:27.245Z,1262.8
2023-01-29T06:02:10.920Z,1252
2023-01-29T06:03:54.619Z,1248.1
2023-01-29T06:05:38.369Z,1250
2023-01-29T06:07:22.032Z,1246.6
2023-01-29T06:09:05.749Z,1248.1
2023-01-29T06:10:49.475Z,1248.7
2023-01-29T06:12:33.133Z,1247.5
2023-01-29T06:14:16.847Z,1248.3
2023-01-29T06:16:00.534Z,1250.3
2023-01-29T06:17:44.239Z,1252.3
2023-01-29T06:19:27.950Z,1252.9
2023-01-29T06:21:11.648Z,1253
2023-01-29T06:22:55.366Z,1254.6
2023-01-29T06:24:39.052Z,1249.3
2023-01-29T06:26:22.754Z,1248.9
2023-01-29T06:28:06.519Z,1247.7
2023-01-29T06:29:50.157Z,1250.5
2023-01-29T06:31:33.843Z,1248.5
2023-01-29T06:33:17.561Z,1249.3
2023-01-29T06:35:01.264Z,1250.4
2023-01-29T06:36:44.980Z,1247.9
2023-01-29T06:38:28.726Z,1246.9
2023-01-29T06:40:12.365Z,1254.6
2023-01-29T06:41:56.106Z,1249.3
2023-01-29T06:43:39.819Z,1248.3
2023-01-29T06:45:23.475Z,1250.2
2023-01-29T06:47:07.207Z,1247.7
2023-01-29T06:48:50.892Z,1245.1
2023-01-29T06:50:34.588Z,1243.9
2023-01-29T06:52:18.486Z,1241.8
2023-01-29T06:54:01.990Z,1239.8
2023-01-29T06:55:45.695Z,1244.8
2023-01-29T06:57:29.402Z,1246.2
2023-01-29T06:59:13.099Z,1246.5
2023-01-29T07:00:56.814Z,1244.9
2023-01-29T07:02:40.520Z,1240.1
2023-01-29T07:04:24.272Z,1238.2
2023-01-29T07:06:07.951Z,1242.2
2023-01-29T07:07:51.696Z,1244.2
2023-01-29T07:09:35.326Z,1245.5
2023-01-29T07:11:19.052Z,1247.4
2023-01-29T07:13:02.722Z,1248.4
2023-01-29T07:14:46.447Z,1251.9
2023-01-29T07:16:30.137Z,1255.8
2023-01-29T07:18:13.865Z,1254.8
2023-01-29T07:19:57.610Z,1254.4
2023-01-29T07:21:41.238Z,1248.7
2023-01-29T07:23:24.945Z,1249.9
2023-01-29T07:25:08.668Z,1250.1
2023-01-29T07:26:52.348Z,1245
2023-01-29T07:28:36.064Z,1245.6
2023-01-29T07:30:19.764Z,1249
2023-01-29T07:32:03.463Z,1252.3
2023-01-29T07:33:47.168Z,1247
2023-01-29T07:35:30.870Z,1247.8
2023-01-29T07:37:14.565Z,1252.7
2023-01-29T07:38:58.263Z,1252.4
2023-01-29T07:40:41.975Z,1252.6
2023-01-29T07:42:25.682Z,1251.1
2023-01-29T07:44:09.379Z,1251.5
2023-01-29T07:45:53.080Z,1253.7
2023-01-29T07:47:36.777Z,1252.5
2023-01-29T07:49:20.488Z,1253.8
2023-01-29T07:51:04.191Z,1255.4
2023-01-29T07:52:47.887Z,1253.5
2023-01-29T07:54:31.593Z,1257.2
2023-01-29T07:56:15.345Z,1262.2
2023-01-29T07:57:59.014Z,1260.8
2023-01-29T07:59:42.749Z,1257.6
2023-01-29T08:01:26.426Z,1257.7
2023-01-29T08:03:10.109Z,1256.8
2023-01-29T08:04:53.850Z,1258.7
2023-01-29T08:06:37.750Z,1259.5
2023-01-29T08:08:21.267Z,1258.9
2023-01-29T08:10:05.035Z,1262
2023-01-29T08:11:48.620Z,1261.7
2023-01-29T08:13:32.391Z,1257.2
2023-01-29T08:15:16.050Z,1254.8
2023-01-29T08:16:59.799Z,1252.4
2023-01-29T08:18:43.602Z,1253.9
2023-01-29T08:20:27.130Z,1254.5
2023-01-29T08:22:10.971Z,1257.4
2023-01-29T08:23:54.618Z,1262.6
2023-01-29T08:25:38.235Z,1264.6
2023-01-29T08:27:21.939Z,1262.6
2023-01-29T08:29:05.784Z,1261.3
2023-01-29T08:30:49.497Z,1253.6
2023-01-29T08:32:33.216Z,1259.8
2023-01-29T08:34:16.938Z,1259.6
2023-01-29T08:36:00.698Z,1259.5
2023-01-29T08:37:44.295Z,1258.8
2023-01-29T08:39:28.054Z,1260.6
2023-01-29T08:42:55.400Z,1265
2023-01-29T08:44:39.119Z,1262.2
2023-01-29T08:46:22.824Z,1262.1
2023-01-29T08:48:06.559Z,1260.1
2023-01-29T08:49:50.205Z,1260
2023-01-29T08:51:33.936Z,1259.9
2023-01-29T08:53:17.627Z,1260.4
2023-01-29T08:55:01.397Z,1260.3
2023-01-29T08:56:45.117Z,1262.2
2023-01-29T08:58:28.764Z,1261.1
2023-01-29T09:00:12.427Z,1259.1
2023-01-29T09:01:56.124Z,1262.8
2023-01-29T09:03:39.859Z,1266
2023-01-29T09:05:23.607Z,1278.8
2023-01-29T09:07:07.150Z,1365.8
2023-01-29T09:08:50.803Z,1424.8
2023-01-29T09:10:34.508Z,1465.9
2023-01-29T09:12:18.194Z,1519.6
2023-01-29T09:14:02.069Z,1537.6
2023-01-29T09:15:45.608Z,1572.5
2023-01-29T09:17:29.375Z,1587.8
2023-01-29T09:19:13.014Z,1597.8
2023-01-29T09:20:56.714Z,1597.4
2023-01-29T09:22:40.428Z,1595.4
2023-01-29T09:24:24.248Z,1599.1
2023-01-29T09:26:07.863Z,1601.9
2023-01-29T09:27:51.688Z,1597.7
2023-01-29T09:29:35.298Z,1590.8
2023-01-29T09:31:18.957Z,1589.3
2023-01-29T09:33:02.656Z,1586.3
2023-01-29T09:34:46.495Z,1580.7
2023-01-29T09:36:30.032Z,1572.5
2023-01-29T09:38:13.897Z,1572.2
2023-01-29T09:39:57.446Z,1569.4
2023-01-29T09:41:41.289Z,1567.2
2023-01-29T09:43:24.986Z,1573.6
2023-01-29T09:45:08.676Z,1575.4
2023-01-29T09:46:52.419Z,1570.6
2023-01-29T09:48:36.124Z,1568.3
2023-01-29T09:50:19.821Z,1570.7
2023-01-29T09:52:03.534Z,1564.8
2023-01-29T09:53:47.208Z,1565.5
2023-01-29T09:55:30.861Z,1564
2023-01-29T09:57:14.571Z,1569.9
2023-01-29T09:58:58.288Z,1570.5
2023-01-29T10:00:42.005Z,1568.3
2023-01-29T10:02:25.759Z,1566.6
2023-01-29T10:04:09.281Z,1570.9
2023-01-29T10:05:53.183Z,1570.8
2023-01-29T10:07:36.804Z,1570.5
2023-01-29T10:09:20.498Z,1569.5
2023-01-29T10:11:04.251Z,1565.4
2023-01-29T10:12:47.885Z,1564.2
2023-01-29T10:14:31.704Z,1560.1
2023-01-29T10:16:15.291Z,1563.7
2023-01-29T10:17:58.899Z,1568
2023-01-29T10:19:42.644Z,1570.1
2023-01-29T10:21:26.431Z,1567.4
2023-01-29T10:23:10.097Z,1562.1
2023-01-29T10:24:53.807Z,1559.8
2023-01-29T10:26:37.422Z,1561.6
2023-01-29T10:28:21.239Z,1561.7
2023-01-29T10:30:04.919Z,1562.7
2023-01-29T10:31:48.679Z,1563.7
2023-01-29T10:33:32.359Z,1566.2
2023-01-29T10:35:16.113Z,1565.4
2023-01-29T10:36:59.681Z,1561.5
2023-01-29T10:38:43.454Z,1562.2
2023-01-29T10:40:27.115Z,1568.7
2023-01-29T10:42:10.928Z,1568.5
2023-01-29T10:43:54.603Z,1572.9
2023-01-29T10:45:38.140Z,1579.3
2023-01-29T10:47:21.843Z,1582.2
2023-01-29T10:49:05.693Z,1588.2
2023-01-29T10:50:49.284Z,1587.9
2023-01-29T10:52:33.060Z,1582.6
2023-01-29T10:54:16.748Z,1583.5
2023-01-29T10:56:00.496Z,1583.6
2023-01-29T10:57:44.063Z,1582.9
2023-01-29T10:59:27.835Z,1575.2
2023-01-29T11:01:11.533Z,1570.1
2023-01-29T11:02:55.256Z,1562.2
2023-01-29T11:04:39.003Z,1555.2
2023-01-29T11:06:22.640Z,1550.4
2023-01-29T11:08:06.383Z,1548.1
2023-01-29T11:09:50.054Z,1543.4
2023-01-29T11:11:33.814Z,1536.4
2023-01-29T11:13:17.535Z,1526.2
2023-01-29T11:15:01.197Z,1511.7
2023-01-29T11:16:45.001Z,1504.3
2023-01-29T11:18:28.648Z,1496.6
2023-01-29T11:20:12.377Z,1495.8
2023-01-29T11:21:55.898Z,1496.5
2023-01-29T11:23:39.777Z,1491.3
2023-01-29T11:25:23.384Z,1487.6
2023-01-29T11:27:07.136Z,1487.1
2023-01-29T11:28:50.861Z,1481.7
2023-01-29T11:30:34.452Z,1479.1
2023-01-29T11:32:18.287Z,1458.3
2023-01-29T11:34:01.813Z,1460.1
2023-01-29T11:35:45.710Z,1443.9
2023-01-29T11:37:29.417Z,1411.5
2023-01-29T11:39:13.077Z,1384.6
2023-01-29T11:40:56.827Z,1386.4
2023-01-29T11:42:40.316Z,1382.5
2023-01-29T11:44:24.101Z,1379.3
2023-01-29T11:46:07.723Z,1379.3
2023-01-29T11:47:51.425Z,1376.3
2023-01-29T11:49:35.296Z,1372.6
2023-01-29T11:51:18.996Z,1370.6
2023-01-29T11:53:02.681Z,1368.2
2023-01-29T11:54:46.450Z,1365.9
2023-01-29T11:56:29.928Z,1373.7
2023-01-29T11:58:13.787Z,1375.5
2023-01-29T11:59:57.339Z,1381
2023-01-29T12:01:41.229Z,1385.6
2023-01-29T12:03:24.746Z,1391.3
2023-01-29T12:05:08.532Z,1394.7
2023-01-29T12:06:52.152Z,1394.3
2023-01-29T12:08:36.009Z,1382.7
2023-01-29T12:10:19.550Z,1375.6
2023-01-29T12:12:03.260Z,1362.9
2023-01-29T12:13:46.960Z,1362.3
2023-01-29T12:15:30.872Z,1367.8
2023-01-29T12:17:14.506Z,1365.1
2023-01-29T12:18:58.210Z,1365.3
2023-01-29T12:20:41.773Z,1364.5
2023-01-29T12:22:25.705Z,1358.6
2023-01-29T12:24:09.227Z,1354.9
2023-01-29T12:25:52.901Z,1343.5
2023-01-29T12:27:36.725Z,1340
2023-01-29T12:29:20.284Z,1341.1
2023-01-29T12:31:03.987Z,1343.7
2023-01-29T12:32:47.805Z,1341.3
2023-01-29T12:34:31.413Z,1339.7
2023-01-29T12:36:15.097Z,1343.1
2023-01-29T12:37:58.802Z,1286.3
2023-01-29T12:39:42.515Z,863.9
2023-01-29T12:41:26.211Z,1254.9
2023-01-29T12:43:09.911Z,1287.9
2023-01-29T12:44:53.664Z,1248.1
2023-01-29T12:46:37.324Z,1150.3
2023-01-29T12:48:21.015Z,1145.9
2023-01-29T12:50:04.737Z,1163.9
2023-01-29T12:51:48.568Z,1179.8
2023-01-29T12:53:32.126Z,1187.5
2023-01-29T12:55:15.831Z,1193.4
2023-01-29T12:56:59.530Z,1203.2
2023-01-29T12:58:43.219Z,1209.3
2023-01-29T13:00:27.035Z,1217.8
2023-01-29T13:02:10.680Z,1219.8
2023-01-29T13:03:54.339Z,1223.4
2023-01-29T13:07:21.736Z,1227.6
2023-01-29T13:09:05.445Z,1226.9
2023-01-29T13:10:49.160Z,1227.9
2023-01-29T13:12:32.896Z,1233.5
2023-01-29T13:14:16.670Z,1235
2023-01-29T13:16:00.304Z,1239.9
2023-01-29T13:17:44.033Z,1248.5
2023-01-29T13:19:27.749Z,1252
2023-01-29T13:21:11.383Z,1255.7
2023-01-29T13:22:55.135Z,1255.5
2023-01-29T13:24:38.860Z,1262.6
2023-01-29T13:26:22.557Z,1262.9
2023-01-29T13:28:06.185Z,1256.3
2023-01-29T13:29:49.987Z,1258.4
2023-01-29T13:31:33.760Z,1256.8
2023-01-29T13:33:17.399Z,1254.2
2023-01-29T13:35:01.171Z,1255.7
2023-01-29T13:36:44.683Z,1256.7
2023-01-29T13:38:28.541Z,1250.2
2023-01-29T13:40:12.221Z,1248.4
2023-01-29T13:41:55.957Z,1252.1
2023-01-29T13:43:39.641Z,1253
2023-01-29T13:45:23.355Z,1252.2
2023-01-29T13:47:07.008Z,1247.5
2023-01-29T13:48:50.754Z,1244.4
2023-01-29T13:50:34.502Z,1245.6
2023-01-29T13:52:18.158Z,1247.3
2023-01-29T13:54:01.708Z,1255.5
2023-01-29T13:55:45.507Z,1267.8
2023-01-29T13:57:29.231Z,1272.5
2023-01-29T13:59:12.821Z,1272
2023-01-29T14:00:56.653Z,1276.2
2023-01-29T14:02:40.315Z,1289.4
2023-01-29T14:04:24.037Z,1332.5
2023-01-29T14:06:07.682Z,1331.8
2023-01-29T14:07:51.406Z,1331.3
2023-01-29T14:09:35.024Z,1334.7
2023-01-29T14:11:18.876Z,1334.8
2023-01-29T14:14:46.207Z,1343.1
2023-01-29T14:16:29.997Z,1341.8
2023-01-29T14:18:13.713Z,1338.4
2023-01-29T14:19:57.392Z,1346.4
2023-01-29T14:21:41.104Z,1348
2023-01-29T14:23:24.801Z,1350.4
2023-01-29T14:25:08.513Z,1355.9
2023-01-29T14:26:52.255Z,1358.6
2023-01-29T14:28:35.936Z,1361.4
2023-01-29T14:30:19.677Z,1364
2023-01-29T14:32:03.371Z,1365.1
2023-01-29T14:33:47.070Z,1369.1
2023-01-29T14:35:30.705Z,1372.6
2023-01-29T14:37:14.282Z,1370.7
2023-01-29T14:38:58.128Z,1370.1
2023-01-29T14:40:41.863Z,1370.9
2023-01-29T14:42:25.510Z,1368
2023-01-29T14:44:09.247Z,1364.6
2023-01-29T14:45:52.945Z,1361
2023-01-29T14:47:36.628Z,1358.6
2023-01-29T14:49:20.219Z,1352.2
2023-01-29T14:51:04.014Z,1350.7
2023-01-29T14:52:47.793Z,1348.5
2023-01-29T14:54:31.487Z,1348.4
2023-01-29T14:56:15.170Z,1344.6
2023-01-29T14:57:58.875Z,1340.9
2023-01-29T14:59:42.615Z,1334.8
2023-01-29T15:01:26.398Z,1327.3
2023-01-29T15:03:10.009Z,1321.9
2023-01-29T15:04:53.664Z,1317.6
2023-01-29T15:06:37.391Z,1310.3
2023-01-29T15:08:20.974Z,1309.2
2023-01-29T15:10:04.646Z,1309
2023-01-29T15:11:48.559Z,1311.9
2023-01-29T15:13:32.047Z,1328.1
2023-01-29T15:15:15.732Z,1323.8
2023-01-29T15:16:59.598Z,1319.6
2023-01-29T15:18:43.283Z,1315.9
2023-01-29T15:20:26.841Z,1312
2023-01-29T15:22:10.658Z,1305
2023-01-29T15:23:54.257Z,1300.6
2023-01-29T15:25:37.959Z,1299.6
2023-01-29T15:27:21.792Z,1350
2023-01-29T15:29:05.394Z,1381.7
2023-01-29T15:30:49.211Z,1376.3
2023-01-29T15:32:32.937Z,1354.3
2023-01-29T15:34:16.646Z,1360.3
2023-01-29T15:36:00.373Z,1356
2023-01-29T15:37:43.991Z,1359.7
2023-01-29T15:39:27.784Z,1355.8
2023-01-29T15:41:11.437Z,1346.4
2023-01-29T15:42:55.154Z,1342.3
2023-01-29T15:44:38.706Z,1337.4
2023-01-29T15:46:22.597Z,1335.7
2023-01-29T15:48:06.153Z,1334.6
2023-01-29T15:49:49.895Z,1325.5
2023-01-29T15:51:33.646Z,1322.2
2023-01-29T15:53:17.283Z,1327.4
2023-01-29T15:55:00.973Z,1353.7
2023-01-29T15:56:44.724Z,1367.1
2023-01-29T15:58:28.306Z,1393.4
2023-01-29T16:00:12.114Z,1415.7
2023-01-29T16:01:55.733Z,1426.2
2023-01-29T16:03:39.440Z,1433.5
2023-01-29T16:05:23.111Z,1469
2023-01-29T16:07:06.914Z,1480.3
2023-01-29T16:08:50.578Z,1478.3
2023-01-29T16:10:34.361Z,1482.2
2023-01-29T16:12:17.924Z,1498.3
2023-01-29T16:14:01.634Z,1509
2023-01-29T16:15:45.507Z,1514.6
2023-01-29T16:17:29.266Z,1534.9
2023-01-29T16:19:12.899Z,1553.1
2023-01-29T16:20:56.656Z,1564.9
2023-01-29T16:22:40.321Z,1568.7
2023-01-29T16:24:23.969Z,1575.4
2023-01-29T16:26:07.774Z,1580.9
2023-01-29T16:27:51.426Z,1615.6
2023-01-29T16:29:35.169Z,1635.9
2023-01-29T16:31:18.862Z,1633.7
2023-01-29T16:33:02.545Z,1635.2
2023-01-29T16:34:46.264Z,1637.5
2023-01-29T16:36:29.983Z,1648.9
2023-01-29T16:38:13.612Z,1649.8
2023-01-29T16:39:57.329Z,1637.2
2023-01-29T16:41:41.007Z,1639
2023-01-29T16:43:24.578Z,1647.4
2023-01-29T16:45:08.498Z,1653
2023-01-29T16:46:52.056Z,1664.8
2023-01-29T16:48:35.683Z,1682
2023-01-29T16:50:19.400Z,1699
2023-01-29T16:52:03.105Z,1702.2
2023-01-29T16:53:46.819Z,1712
2023-01-29T16:55:30.651Z,1726.9
2023-01-29T16:57:14.234Z,1739.4
2023-01-29T16:58:57.911Z,1748.3
2023-01-29T17:00:41.627Z,1768.4
2023-01-29T17:02:25.301Z,1781.4
2023-01-29T17:04:09.103Z,1781.6
2023-01-29T17:05:52.701Z,1796.8
2023-01-29T17:07:36.426Z,1801.2
2023-01-29T17:09:20.280Z,1804.4
2023-01-29T17:11:03.820Z,1805.1
2023-01-29T17:12:47.575Z,1820.8
2023-01-29T17:14:31.231Z,1838.3
2023-01-29T17:16:15.228Z,1853.6
2023-01-29T17:17:58.728Z,1856.1
2023-01-29T17:19:42.491Z,1858.1
2023-01-29T17:21:26.189Z,1865
2023-01-29T17:23:09.844Z,1878.5
2023-01-29T17:24:53.563Z,1910.2
2023-01-29T17:26:37.150Z,1916.6
2023-01-29T17:28:21.012Z,1925.6
2023-01-29T17:30:04.558Z,1932.9
2023-01-29T17:31:48.326Z,1938.1
2023-01-29T17:33:32.164Z,1941.6
2023-01-29T17:35:15.906Z,1950.7
2023-01-29T17:36:59.506Z,1954.2
2023-01-29T17:38:43.271Z,1956.4
2023-01-29T17:40:26.818Z,1953.6
2023-01-29T17:42:10.469Z,1949.8
2023-01-29T17:43:54.247Z,1942.7
2023-01-29T17:45:37.957Z,1914.6
2023-01-29T17:47:21.653Z,1881.5
2023-01-29T17:49:05.361Z,1833.7
2023-01-29T17:50:49.006Z,1747.9
2023-01-29T17:52:32.682Z,1735.5
2023-01-29T17:54:16.383Z,1727.6
2023-01-29T17:56:00.093Z,1710.9
2023-01-29T17:57:43.857Z,1694.4
2023-01-29T17:59:27.547Z,1686.4
2023-01-29T18:01:11.208Z,1684.8
2023-01-29T18:02:54.904Z,1690.3
2023-01-29T18:04:38.707Z,1705.4
2023-01-29T18:06:22.421Z,1725.3
2023-01-29T18:08:06.160Z,1759.5
2023-01-29T18:09:49.709Z,1767.7
2023-01-29T18:11:33.664Z,1801.3
2023-01-29T18:13:17.207Z,1833.1
2023-01-29T18:15:00.981Z,1852.2
2023-01-29T18:16:44.672Z,1862.2
2023-01-29T18:18:28.358Z,1871.1
2023-01-29T18:20:12.092Z,1874.2
2023-01-29T18:21:55.782Z,1883.5
2023-01-29T18:25:23.210Z,1891.2
2023-01-29T18:27:06.906Z,1897
2023-01-29T18:28:50.684Z,1893.1
2023-01-29T18:30:34.389Z,1895.1
2023-01-29T18:32:18.009Z,1895.1
2023-01-29T18:34:01.759Z,1893.5
2023-01-29T18:35:45.410Z,1882.8
2023-01-29T18:37:29.119Z,1883.7
2023-01-29T18:39:12.652Z,1888.5
2023-01-29T18:40:56.370Z,1890.6
2023-01-29T18:42:40.253Z,1888.9
2023-01-29T18:44:23.941Z,1887
2023-01-29T18:46:07.614Z,1887.6
2023-01-29T18:47:51.366Z,1888
2023-01-29T18:49:34.974Z,1877
2023-01-29T18:51:18.571Z,1868.4
2023-01-29T18:53:02.354Z,1859.9
2023-01-29T18:54:46.025Z,1861.5
2023-01-29T18:56:29.678Z,1872.5
2023-01-29T18:58:13.515Z,1875.4
2023-01-29T18:59:57.081Z,1878.2
2023-01-29T19:01:40.948Z,1881.2
2023-01-29T19:03:24.574Z,1889.7
2023-01-29T19:05:08.342Z,1890.3
2023-01-29T19:06:51.910Z,1896.2
2023-01-29T19:08:35.647Z,1903.1
2023-01-29T19:10:19.297Z,1902.5
2023-01-29T19:12:03.054Z,1898.4
2023-01-29T19:13:46.696Z,1895.1
2023-01-29T19:15:30.577Z,1890.4
2023-01-29T19:17:14.114Z,1887.6
2023-01-29T19:18:57.877Z,1881.4
2023-01-29T19:20:41.554Z,1866.7
2023-01-29T19:22:25.225Z,1853.2
2023-01-29T19:24:08.962Z,1847.4
2023-01-29T19:25:52.681Z,1845.2
2023-01-29T19:27:36.330Z,1843.3
2023-01-29T19:29:20.091Z,1843.3
2023-01-29T19:31:03.761Z,1847.4
2023-01-29T19:32:47.474Z,1854
2023-01-29T19:34:31.198Z,1859.3
2023-01-29T19:36:15.024Z,1866.6
2023-01-29T19:37:58.715Z,1875.7
2023-01-29T19:39:42.357Z,1933
2023-01-29T19:41:26.013Z,1955.9
2023-01-29T19:43:09.705Z,1967.2
2023-01-29T19:44:57.617Z,1992.5
2023-01-29T19:47:02.797Z,2019.5
2023-01-29T19:49:07.713Z,2030.6
2023-01-29T19:51:12.756Z,2035.6
2023-01-29T19:53:17.832Z,2038.7
2023-01-29T19:55:22.851Z,2041.4
2023-01-29T19:57:27.887Z,2040.5
2023-01-29T19:59:33.147Z,2039.5
2023-01-29T20:01:38.101Z,2033.6
2023-01-29T20:03:43.041Z,2026.6
2023-01-29T20:05:48.161Z,2010.9
2023-01-29T20:07:53.230Z,2012.1
2023-01-29T20:09:58.227Z,2015.5
2023-01-29T20:12:03.401Z,2022.9
2023-01-29T20:14:08.443Z,2008
2023-01-29T20:16:07.059Z,2000.8
2023-01-29T20:17:50.708Z,1995.3
2023-01-29T20:19:34.339Z,1990.2
2023-01-29T20:21:18.055Z,1991.1
2023-01-29T20:24:45.456Z,1984.9
2023-01-29T20:26:29.167Z,1983.4
2023-01-29T20:28:12.869Z,1982.3
2023-01-29T20:29:56.565Z,1978.8
2023-01-29T20:31:40.304Z,1971.4
2023-01-29T20:33:24.032Z,1974
2023-01-29T20:35:07.719Z,1974.6
2023-01-29T20:36:51.379Z,1973.5
2023-01-29T20:38:35.115Z,1971.7
2023-01-29T20:40:18.995Z,1968.1
2023-01-29T20:42:02.608Z,1972.8
2023-01-29T20:43:46.253Z,1965
2023-01-29T20:45:29.890Z,1963.7
2023-01-29T20:47:13.651Z,1959.1
2023-01-29T20:48:57.378Z,1957.3
2023-01-29T20:50:41.079Z,1965.9
2023-01-29T20:52:24.761Z,1973.1
2023-01-29T20:54:08.479Z,1977.5
2023-01-29T20:55:52.168Z,1976.7
2023-01-29T20:57:35.798Z,1978
2023-01-29T20:59:19.507Z,1985.5
2023-01-29T21:01:03.312Z,1990.5
2023-01-29T21:02:46.938Z,1989
2023-01-29T21:04:49.822Z,2009
2023-01-29T21:06:54.861Z,2010.8
2023-01-29T21:08:59.916Z,2011.4
2023-01-29T21:11:05.095Z,2014.5
2023-01-29T21:13:10.037Z,2012.2
2023-01-29T21:15:15.174Z,2014.5
2023-01-29T21:17:20.085Z,2017.5
2023-01-29T21:19:25.194Z,2021.8
2023-01-29T21:21:30.176Z,2024.4
2023-01-29T21:23:35.216Z,2043.4
2023-01-29T21:25:40.275Z,2053.1
2023-01-29T21:27:45.311Z,2053.5
2023-01-29T21:29:50.358Z,2057.7
2023-01-29T21:31:55.404Z,2064.9
2023-01-29T21:34:00.476Z,2075.7
2023-01-29T21:36:05.488Z,2079.4
2023-01-29T21:38:10.543Z,2081.4
2023-01-29T21:40:15.590Z,2075.7
2023-01-29T21:42:20.642Z,2068.1
2023-01-29T21:44:25.692Z,2065.8
2023-01-29T21:46:30.742Z,2067.4
2023-01-29T21:48:35.791Z,2066.1
2023-01-29T21:50:41.117Z,2065.1
2023-01-29T21:52:45.929Z,2066.7
2023-01-29T21:54:50.965Z,2067.5
2023-01-29T21:56:56.000Z,2071.9
2023-01-29T21:59:01.105Z,2074.2
2023-01-29T22:01:06.094Z,2073.7
2023-01-29T22:03:11.152Z,2077.8
2023-01-29T22:05:16.200Z,2073
2023-01-29T22:07:21.259Z,2068
2023-01-29T22:09:26.387Z,2074.2
2023-01-29T22:11:31.430Z,2077.6
2023-01-29T22:13:36.418Z,2082.1